sensor_id;sensor_type;location;lat;lon;timestamp;P1;durP1;ratioP1;P2;durP2;ratioP2
22837;SDS011;11585;51.450;-0.240;2023-05-23T00:02:08;21.83;;;7.60;;
22837;SDS011;11585;51.450;-0.240;2023-05-23T00:04:34;16.67;;;8.23;;
22837;SDS011;11585;51.450;-0.240;2023-05-23T00:07:02;18.38;;;8.73;;
22837;SDS011;11585;51.450;-0.240;2023-05-23T00:11:58;19.40;;;8.45;;
22837;SDS011;11585;51.450;-0.240;2023-05-23T00:14:24;22.73;;;7.30;;
22837;SDS011;11585;51.450;-0.240;2023-05-23T00:16:50;20.75;;;8.10;;
22837;SDS011;11585;51.450;-0.240;2023-05-23T00:19:17;25.98;;;8.65;;
22837;SDS011;11585;51.450;-0.240;2023-05-23T00:21:42;14.93;;;7.57;;
22837;SDS011;11585;51.450;-0.240;2023-05-23T00:24:20;25.25;;;8.98;;
22837;SDS011;11585;51.450;-0.240;2023-05-23T00:26:46;17.42;;;8.07;;
22837;SDS011;11585;51.450;-0.240;2023-05-23T00:32:16;21.77;;;8.20;;
22837;SDS011;11585;51.450;-0.240;2023-05-23T00:34:42;20.83;;;7.85;;
22837;SDS011;11585;51.450;-0.240;2023-05-23T00:37:09;20.48;;;7.75;;
22837;SDS011;11585;51.450;-0.240;2023-05-23T00:39:38;19.17;;;7.68;;
22837;SDS011;11585;51.450;-0.240;2023-05-23T00:42:03;25.02;;;7.45;;
22837;SDS011;11585;51.450;-0.240;2023-05-23T00:44:30;16.80;;;8.40;;
22837;SDS011;11585;51.450;-0.240;2023-05-23T00:46:56;20.17;;;8.13;;
22837;SDS011;11585;51.450;-0.240;2023-05-23T00:49:23;16.95;;;7.85;;
22837;SDS011;11585;51.450;-0.240;2023-05-23T00:51:51;15.13;;;7.43;;
22837;SDS011;11585;51.450;-0.240;2023-05-23T00:54:19;20.17;;;8.23;;
22837;SDS011;11585;51.450;-0.240;2023-05-23T00:56:49;19.77;;;7.50;;
22837;SDS011;11585;51.450;-0.240;2023-05-23T01:01:45;17.88;;;7.65;;
22837;SDS011;11585;51.450;-0.240;2023-05-23T01:06:40;18.63;;;7.95;;
22837;SDS011;11585;51.450;-0.240;2023-05-23T01:09:14;16.88;;;7.93;;
22837;SDS011;11585;51.450;-0.240;2023-05-23T01:11:44;16.02;;;7.75;;
22837;SDS011;11585;51.450;-0.240;2023-05-23T01:14:34;14.23;;;7.45;;
22837;SDS011;11585;51.450;-0.240;2023-05-23T01:17:25;14.85;;;7.30;;
22837;SDS011;11585;51.450;-0.240;2023-05-23T01:25:34;15.07;;;7.40;;
22837;SDS011;11585;51.450;-0.240;2023-05-23T01:28:15;17.30;;;7.70;;
22837;SDS011;11585;51.450;-0.240;2023-05-23T01:30:44;15.52;;;7.30;;
22837;SDS011;11585;51.450;-0.240;2023-05-23T01:33:13;15.18;;;7.10;;
22837;SDS011;11585;51.450;-0.240;2023-05-23T01:35:41;22.67;;;7.05;;
22837;SDS011;11585;51.450;-0.240;2023-05-23T01:38:07;14.45;;;7.13;;
22837;SDS011;11585;51.450;-0.240;2023-05-23T01:40:34;17.90;;;7.65;;
22837;SDS011;11585;51.450;-0.240;2023-05-23T01:43:00;17.98;;;7.03;;
22837;SDS011;11585;51.450;-0.240;2023-05-23T01:45:26;16.25;;;7.43;;
22837;SDS011;11585;51.450;-0.240;2023-05-23T01:47:53;15.02;;;7.22;;
22837;SDS011;11585;51.450;-0.240;2023-05-23T01:50:20;15.15;;;6.95;;
22837;SDS011;11585;51.450;-0.240;2023-05-23T01:52:47;15.40;;;7.72;;
22837;SDS011;11585;51.450;-0.240;2023-05-23T01:55:15;14.50;;;7.15;;
22837;SDS011;11585;51.450;-0.240;2023-05-23T01:57:46;12.38;;;6.95;;
22837;SDS011;11585;51.450;-0.240;2023-05-23T02:02:45;15.60;;;7.30;;
22837;SDS011;11585;51.450;-0.240;2023-05-23T02:05:11;13.32;;;6.95;;
22837;SDS011;11585;51.450;-0.240;2023-05-23T02:07:37;15.43;;;6.93;;
22837;SDS011;11585;51.450;-0.240;2023-05-23T02:10:03;14.35;;;6.93;;
22837;SDS011;11585;51.450;-0.240;2023-05-23T02:12:30;13.15;;;6.50;;
22837;SDS011;11585;51.450;-0.240;2023-05-23T02:14:56;17.48;;;6.72;;
22837;SDS011;11585;51.450;-0.240;2023-05-23T02:17:22;18.90;;;7.68;;
22837;SDS011;11585;51.450;-0.240;2023-05-23T02:22:56;16.42;;;7.03;;
22837;SDS011;11585;51.450;-0.240;2023-05-23T02:25:22;14.25;;;7.40;;
22837;SDS011;11585;51.450;-0.240;2023-05-23T02:27:48;23.15;;;6.55;;
22837;SDS011;11585;51.450;-0.240;2023-05-23T02:30:16;15.07;;;6.65;;
22837;SDS011;11585;51.450;-0.240;2023-05-23T02:32:41;11.20;;;5.95;;
22837;SDS011;11585;51.450;-0.240;2023-05-23T02:35:07;15.55;;;6.43;;
22837;SDS011;11585;51.450;-0.240;2023-05-23T02:37:34;13.13;;;6.20;;
22837;SDS011;11585;51.450;-0.240;2023-05-23T02:43:22;16.35;;;6.15;;
22837;SDS011;11585;51.450;-0.240;2023-05-23T02:45:48;18.58;;;5.95;;
22837;SDS011;11585;51.450;-0.240;2023-05-23T02:48:13;13.95;;;5.60;;
22837;SDS011;11585;51.450;-0.240;2023-05-23T02:53:25;15.73;;;5.90;;
22837;SDS011;11585;51.450;-0.240;2023-05-23T02:55:51;12.38;;;5.68;;
22837;SDS011;11585;51.450;-0.240;2023-05-23T02:58:17;14.88;;;6.10;;
22837;SDS011;11585;51.450;-0.240;2023-05-23T03:00:43;11.90;;;5.38;;
22837;SDS011;11585;51.450;-0.240;2023-05-23T03:03:08;11.10;;;6.32;;
22837;SDS011;11585;51.450;-0.240;2023-05-23T03:05:35;14.52;;;6.25;;
22837;SDS011;11585;51.450;-0.240;2023-05-23T03:08:01;19.73;;;5.78;;
22837;SDS011;11585;51.450;-0.240;2023-05-23T03:13:12;19.05;;;5.78;;
22837;SDS011;11585;51.450;-0.240;2023-05-23T03:15:38;22.30;;;6.38;;
22837;SDS011;11585;51.450;-0.240;2023-05-23T03:18:04;9.55;;;5.32;;
22837;SDS011;11585;51.450;-0.240;2023-05-23T03:23:34;11.98;;;5.00;;
22837;SDS011;11585;51.450;-0.240;2023-05-23T03:26:00;11.68;;;5.38;;
22837;SDS011;11585;51.450;-0.240;2023-05-23T03:28:27;11.13;;;5.72;;
22837;SDS011;11585;51.450;-0.240;2023-05-23T03:30:54;12.60;;;6.03;;
22837;SDS011;11585;51.450;-0.240;2023-05-23T03:33:20;14.70;;;6.22;;
22837;SDS011;11585;51.450;-0.240;2023-05-23T03:35:46;12.70;;;5.97;;
22837;SDS011;11585;51.450;-0.240;2023-05-23T03:38:11;17.00;;;5.93;;
22837;SDS011;11585;51.450;-0.240;2023-05-23T03:43:59;31.75;;;7.00;;
22837;SDS011;11585;51.450;-0.240;2023-05-23T03:46:25;16.13;;;6.20;;
22837;SDS011;11585;51.450;-0.240;2023-05-23T03:48:52;13.20;;;5.55;;
22837;SDS011;11585;51.450;-0.240;2023-05-23T03:51:17;12.65;;;5.97;;
22837;SDS011;11585;51.450;-0.240;2023-05-23T03:53:43;12.98;;;6.22;;
22837;SDS011;11585;51.450;-0.240;2023-05-23T03:56:08;10.35;;;6.18;;
22837;SDS011;11585;51.450;-0.240;2023-05-23T04:01:56;13.07;;;5.80;;
22837;SDS011;11585;51.450;-0.240;2023-05-23T04:04:23;14.95;;;6.57;;
22837;SDS011;11585;51.450;-0.240;2023-05-23T04:06:50;13.68;;;5.93;;
22837;SDS011;11585;51.450;-0.240;2023-05-23T04:09:18;15.27;;;5.88;;
22837;SDS011;11585;51.450;-0.240;2023-05-23T04:11:46;11.18;;;5.85;;
22837;SDS011;11585;51.450;-0.240;2023-05-23T04:14:12;15.13;;;6.18;;
22837;SDS011;11585;51.450;-0.240;2023-05-23T04:16:38;16.23;;;5.70;;
22837;SDS011;11585;51.450;-0.240;2023-05-23T04:19:08;11.38;;;5.35;;
22837;SDS011;11585;51.450;-0.240;2023-05-23T04:21:34;17.45;;;5.93;;
22837;SDS011;11585;51.450;-0.240;2023-05-23T04:24:00;10.18;;;5.10;;
22837;SDS011;11585;51.450;-0.240;2023-05-23T04:26:26;16.02;;;5.55;;
22837;SDS011;11585;51.450;-0.240;2023-05-23T04:31:46;15.27;;;5.82;;
22837;SDS011;11585;51.450;-0.240;2023-05-23T04:34:11;13.93;;;6.22;;
22837;SDS011;11585;51.450;-0.240;2023-05-23T04:36:37;12.20;;;6.20;;
22837;SDS011;11585;51.450;-0.240;2023-05-23T04:39:05;17.17;;;6.40;;
22837;SDS011;11585;51.450;-0.240;2023-05-23T04:41:30;17.15;;;6.28;;
22837;SDS011;11585;51.450;-0.240;2023-05-23T04:43:56;17.17;;;6.60;;
22837;SDS011;11585;51.450;-0.240;2023-05-23T04:46:22;14.52;;;6.28;;
22837;SDS011;11585;51.450;-0.240;2023-05-23T04:51:38;15.23;;;5.85;;
22837;SDS011;11585;51.450;-0.240;2023-05-23T04:54:04;18.83;;;6.53;;
22837;SDS011;11585;51.450;-0.240;2023-05-23T04:56:33;17.17;;;6.05;;
22837;SDS011;11585;51.450;-0.240;2023-05-23T04:58:59;16.42;;;5.30;;
22837;SDS011;11585;51.450;-0.240;2023-05-23T05:01:28;17.40;;;5.65;;
22837;SDS011;11585;51.450;-0.240;2023-05-23T05:03:53;17.42;;;5.80;;
22837;SDS011;11585;51.450;-0.240;2023-05-23T05:06:19;11.77;;;5.75;;
22837;SDS011;11585;51.450;-0.240;2023-05-23T05:11:51;16.52;;;5.50;;
22837;SDS011;11585;51.450;-0.240;2023-05-23T05:14:18;14.15;;;4.55;;
22837;SDS011;11585;51.450;-0.240;2023-05-23T05:16:44;12.40;;;5.47;;
22837;SDS011;11585;51.450;-0.240;2023-05-23T05:19:12;17.77;;;5.28;;
22837;SDS011;11585;51.450;-0.240;2023-05-23T05:21:37;15.32;;;5.35;;
22837;SDS011;11585;51.450;-0.240;2023-05-23T05:24:03;17.58;;;5.03;;
22837;SDS011;11585;51.450;-0.240;2023-05-23T05:26:28;15.25;;;4.70;;
22837;SDS011;11585;51.450;-0.240;2023-05-23T05:28:55;22.65;;;5.15;;
22837;SDS011;11585;51.450;-0.240;2023-05-23T05:31:21;16.27;;;5.40;;
22837;SDS011;11585;51.450;-0.240;2023-05-23T05:33:46;12.95;;;4.85;;
22837;SDS011;11585;51.450;-0.240;2023-05-23T05:36:12;15.05;;;4.45;;
22837;SDS011;11585;51.450;-0.240;2023-05-23T05:41:23;14.32;;;4.38;;
22837;SDS011;11585;51.450;-0.240;2023-05-23T05:43:49;17.80;;;4.53;;
22837;SDS011;11585;51.450;-0.240;2023-05-23T05:46:14;22.50;;;7.88;;
22837;SDS011;11585;51.450;-0.240;2023-05-23T05:48:41;19.45;;;6.15;;
22837;SDS011;11585;51.450;-0.240;2023-05-23T05:51:07;11.95;;;3.90;;
22837;SDS011;11585;51.450;-0.240;2023-05-23T05:53:33;11.43;;;3.95;;
22837;SDS011;11585;51.450;-0.240;2023-05-23T05:55:58;16.70;;;4.60;;
22837;SDS011;11585;51.450;-0.240;2023-05-23T05:58:24;12.35;;;3.92;;
22837;SDS011;11585;51.450;-0.240;2023-05-23T06:00:50;14.13;;;4.53;;
22837;SDS011;11585;51.450;-0.240;2023-05-23T06:03:17;11.85;;;3.95;;
22837;SDS011;11585;51.450;-0.240;2023-05-23T06:05:43;22.23;;;4.05;;
22837;SDS011;11585;51.450;-0.240;2023-05-23T06:08:08;13.65;;;3.50;;
22837;SDS011;11585;51.450;-0.240;2023-05-23T06:10:36;16.38;;;4.15;;
22837;SDS011;11585;51.450;-0.240;2023-05-23T06:13:03;10.98;;;4.05;;
22837;SDS011;11585;51.450;-0.240;2023-05-23T06:15:29;13.55;;;3.85;;
22837;SDS011;11585;51.450;-0.240;2023-05-23T06:17:54;18.20;;;3.47;;
22837;SDS011;11585;51.450;-0.240;2023-05-23T06:23:07;26.13;;;8.10;;
22837;SDS011;11585;51.450;-0.240;2023-05-23T06:25:32;15.88;;;3.97;;
22837;SDS011;11585;51.450;-0.240;2023-05-23T06:27:58;22.35;;;3.72;;
22837;SDS011;11585;51.450;-0.240;2023-05-23T06:33:13;19.27;;;3.53;;
22837;SDS011;11585;51.450;-0.240;2023-05-23T06:35:38;16.23;;;3.45;;
22837;SDS011;11585;51.450;-0.240;2023-05-23T06:38:04;11.95;;;3.17;;
22837;SDS011;11585;51.450;-0.240;2023-05-23T06:40:32;17.15;;;3.20;;
22837;SDS011;11585;51.450;-0.240;2023-05-23T06:42:58;11.55;;;3.13;;
22837;SDS011;11585;51.450;-0.240;2023-05-23T06:45:23;14.40;;;3.40;;
22837;SDS011;11585;51.450;-0.240;2023-05-23T06:47:49;9.27;;;3.10;;
22837;SDS011;11585;51.450;-0.240;2023-05-23T06:50:16;14.15;;;3.85;;
22837;SDS011;11585;51.450;-0.240;2023-05-23T06:52:45;15.50;;;3.20;;
22837;SDS011;11585;51.450;-0.240;2023-05-23T06:55:11;21.50;;;3.90;;
22837;SDS011;11585;51.450;-0.240;2023-05-23T06:57:42;10.43;;;3.25;;
22837;SDS011;11585;51.450;-0.240;2023-05-23T07:00:08;10.88;;;3.15;;
22837;SDS011;11585;51.450;-0.240;2023-05-23T07:02:34;12.88;;;2.78;;
22837;SDS011;11585;51.450;-0.240;2023-05-23T07:05:00;15.35;;;3.58;;
22837;SDS011;11585;51.450;-0.240;2023-05-23T07:07:26;14.02;;;3.33;;
22837;SDS011;11585;51.450;-0.240;2023-05-23T07:09:52;14.43;;;3.28;;
22837;SDS011;11585;51.450;-0.240;2023-05-23T07:12:17;15.85;;;3.22;;
22837;SDS011;11585;51.450;-0.240;2023-05-23T07:14:43;13.52;;;3.30;;
22837;SDS011;11585;51.450;-0.240;2023-05-23T07:17:08;8.48;;;3.30;;
22837;SDS011;11585;51.450;-0.240;2023-05-23T07:19:36;16.02;;;3.95;;
22837;SDS011;11585;51.450;-0.240;2023-05-23T07:22:02;10.90;;;3.00;;
22837;SDS011;11585;51.450;-0.240;2023-05-23T07:24:28;8.07;;;3.25;;
22837;SDS011;11585;51.450;-0.240;2023-05-23T07:26:53;7.05;;;3.03;;
22837;SDS011;11585;51.450;-0.240;2023-05-23T07:29:19;17.50;;;3.40;;
22837;SDS011;11585;51.450;-0.240;2023-05-23T07:31:45;8.50;;;2.63;;
22837;SDS011;11585;51.450;-0.240;2023-05-23T07:34:10;12.20;;;3.65;;
22837;SDS011;11585;51.450;-0.240;2023-05-23T07:36:36;8.10;;;2.92;;
22837;SDS011;11585;51.450;-0.240;2023-05-23T07:39:04;16.23;;;3.70;;
22837;SDS011;11585;51.450;-0.240;2023-05-23T07:41:30;13.50;;;3.00;;
22837;SDS011;11585;51.450;-0.240;2023-05-23T07:43:56;12.32;;;3.20;;
22837;SDS011;11585;51.450;-0.240;2023-05-23T07:46:22;11.40;;;3.17;;
22837;SDS011;11585;51.450;-0.240;2023-05-23T07:48:48;11.32;;;2.92;;
22837;SDS011;11585;51.450;-0.240;2023-05-23T07:51:13;18.40;;;4.07;;
22837;SDS011;11585;51.450;-0.240;2023-05-23T07:53:39;8.88;;;3.03;;
22837;SDS011;11585;51.450;-0.240;2023-05-23T07:56:05;10.32;;;3.10;;
22837;SDS011;11585;51.450;-0.240;2023-05-23T07:58:31;19.90;;;3.33;;
22837;SDS011;11585;51.450;-0.240;2023-05-23T08:00:57;36.88;;;15.93;;
22837;SDS011;11585;51.450;-0.240;2023-05-23T08:03:23;11.85;;;3.75;;
22837;SDS011;11585;51.450;-0.240;2023-05-23T08:05:49;7.18;;;3.20;;
22837;SDS011;11585;51.450;-0.240;2023-05-23T08:08:15;9.32;;;3.60;;
22837;SDS011;11585;51.450;-0.240;2023-05-23T08:10:43;12.18;;;3.53;;
22837;SDS011;11585;51.450;-0.240;2023-05-23T08:13:09;12.43;;;3.05;;
22837;SDS011;11585;51.450;-0.240;2023-05-23T08:15:35;14.48;;;3.80;;
22837;SDS011;11585;51.450;-0.240;2023-05-23T08:18:02;13.55;;;3.25;;
22837;SDS011;11585;51.450;-0.240;2023-05-23T08:20:30;20.10;;;3.25;;
22837;SDS011;11585;51.450;-0.240;2023-05-23T08:22:59;12.07;;;2.72;;
22837;SDS011;11585;51.450;-0.240;2023-05-23T08:25:26;9.05;;;3.17;;
22837;SDS011;11585;51.450;-0.240;2023-05-23T08:27:56;11.07;;;2.83;;
22837;SDS011;11585;51.450;-0.240;2023-05-23T08:30:26;9.50;;;2.63;;
22837;SDS011;11585;51.450;-0.240;2023-05-23T08:32:57;8.52;;;2.80;;
22837;SDS011;11585;51.450;-0.240;2023-05-23T08:35:24;6.40;;;2.22;;
22837;SDS011;11585;51.450;-0.240;2023-05-23T08:37:53;11.15;;;2.40;;
22837;SDS011;11585;51.450;-0.240;2023-05-23T08:40:21;8.30;;;2.60;;
22837;SDS011;11585;51.450;-0.240;2023-05-23T08:42:47;11.45;;;3.30;;
22837;SDS011;11585;51.450;-0.240;2023-05-23T08:45:13;11.70;;;2.50;;
22837;SDS011;11585;51.450;-0.240;2023-05-23T08:47:43;7.60;;;2.50;;
22837;SDS011;11585;51.450;-0.240;2023-05-23T08:50:14;9.20;;;2.28;;
22837;SDS011;11585;51.450;-0.240;2023-05-23T08:52:42;14.25;;;2.85;;
22837;SDS011;11585;51.450;-0.240;2023-05-23T08:55:10;12.68;;;3.10;;
22837;SDS011;11585;51.450;-0.240;2023-05-23T08:57:36;10.23;;;2.55;;
22837;SDS011;11585;51.450;-0.240;2023-05-23T09:00:04;11.00;;;2.72;;
22837;SDS011;11585;51.450;-0.240;2023-05-23T09:02:35;5.10;;;2.50;;
22837;SDS011;11585;51.450;-0.240;2023-05-23T09:05:05;21.50;;;3.35;;
22837;SDS011;11585;51.450;-0.240;2023-05-23T09:07:31;12.90;;;3.35;;
22837;SDS011;11585;51.450;-0.240;2023-05-23T09:09:57;10.82;;;2.80;;
22837;SDS011;11585;51.450;-0.240;2023-05-23T09:12:22;8.55;;;2.90;;
22837;SDS011;11585;51.450;-0.240;2023-05-23T09:14:48;11.98;;;2.70;;
22837;SDS011;11585;51.450;-0.240;2023-05-23T09:17:15;9.68;;;2.80;;
22837;SDS011;11585;51.450;-0.240;2023-05-23T09:19:43;11.02;;;2.38;;
22837;SDS011;11585;51.450;-0.240;2023-05-23T09:22:10;12.25;;;2.50;;
22837;SDS011;11585;51.450;-0.240;2023-05-23T09:24:36;12.38;;;2.75;;
22837;SDS011;11585;51.450;-0.240;2023-05-23T09:27:03;8.07;;;2.88;;
22837;SDS011;11585;51.450;-0.240;2023-05-23T09:29:35;14.15;;;3.38;;
22837;SDS011;11585;51.450;-0.240;2023-05-23T09:32:17;10.35;;;2.47;;
22837;SDS011;11585;51.450;-0.240;2023-05-23T09:34:59;14.15;;;3.08;;
22837;SDS011;11585;51.450;-0.240;2023-05-23T09:37:30;9.95;;;2.80;;
22837;SDS011;11585;51.450;-0.240;2023-05-23T09:40:01;15.55;;;3.75;;
22837;SDS011;11585;51.450;-0.240;2023-05-23T09:42:33;14.10;;;3.65;;
22837;SDS011;11585;51.450;-0.240;2023-05-23T09:44:59;14.27;;;3.30;;
22837;SDS011;11585;51.450;-0.240;2023-05-23T09:47:25;8.60;;;3.00;;
22837;SDS011;11585;51.450;-0.240;2023-05-23T09:49:54;7.70;;;2.60;;
22837;SDS011;11585;51.450;-0.240;2023-05-23T09:52:20;20.33;;;4.75;;
22837;SDS011;11585;51.450;-0.240;2023-05-23T09:54:46;17.88;;;3.10;;
22837;SDS011;11585;51.450;-0.240;2023-05-23T09:57:13;16.17;;;4.00;;
22837;SDS011;11585;51.450;-0.240;2023-05-23T09:59:40;10.93;;;3.53;;
22837;SDS011;11585;51.450;-0.240;2023-05-23T10:02:12;11.30;;;3.60;;
22837;SDS011;11585;51.450;-0.240;2023-05-23T10:04:41;17.20;;;3.58;;
22837;SDS011;11585;51.450;-0.240;2023-05-23T10:07:16;15.52;;;3.78;;
22837;SDS011;11585;51.450;-0.240;2023-05-23T10:09:55;8.50;;;3.25;;
22837;SDS011;11585;51.450;-0.240;2023-05-23T10:14:56;11.85;;;3.10;;
22837;SDS011;11585;51.450;-0.240;2023-05-23T10:20:09;10.77;;;3.38;;
22837;SDS011;11585;51.450;-0.240;2023-05-23T10:22:36;10.88;;;3.30;;
22837;SDS011;11585;51.450;-0.240;2023-05-23T10:25:03;11.52;;;2.85;;
22837;SDS011;11585;51.450;-0.240;2023-05-23T10:27:34;10.88;;;3.08;;
22837;SDS011;11585;51.450;-0.240;2023-05-23T10:30:03;9.23;;;3.10;;
22837;SDS011;11585;51.450;-0.240;2023-05-23T10:32:33;11.15;;;3.40;;
22837;SDS011;11585;51.450;-0.240;2023-05-23T10:40:59;9.88;;;3.95;;
22837;SDS011;11585;51.450;-0.240;2023-05-23T10:43:30;10.50;;;3.10;;
22837;SDS011;11585;51.450;-0.240;2023-05-23T10:46:08;8.25;;;3.05;;
22837;SDS011;11585;51.450;-0.240;2023-05-23T10:48:34;13.55;;;4.32;;
22837;SDS011;11585;51.450;-0.240;2023-05-23T10:51:12;11.00;;;3.53;;
22837;SDS011;11585;51.450;-0.240;2023-05-23T10:53:40;14.15;;;3.08;;
22837;SDS011;11585;51.450;-0.240;2023-05-23T10:56:08;14.70;;;4.43;;
22837;SDS011;11585;51.450;-0.240;2023-05-23T10:58:39;10.55;;;3.65;;
22837;SDS011;11585;51.450;-0.240;2023-05-23T11:01:06;12.85;;;3.40;;
22837;SDS011;11585;51.450;-0.240;2023-05-23T11:09:13;9.25;;;3.13;;
22837;SDS011;11585;51.450;-0.240;2023-05-23T11:14:18;13.57;;;4.47;;
22837;SDS011;11585;51.450;-0.240;2023-05-23T11:16:44;19.25;;;7.68;;
22837;SDS011;11585;51.450;-0.240;2023-05-23T11:19:21;10.90;;;5.65;;
22837;SDS011;11585;51.450;-0.240;2023-05-23T11:21:53;12.85;;;3.72;;
22837;SDS011;11585;51.450;-0.240;2023-05-23T11:24:48;21.05;;;5.75;;
22837;SDS011;11585;51.450;-0.240;2023-05-23T11:27:34;16.23;;;6.22;;
22837;SDS011;11585;51.450;-0.240;2023-05-23T11:30:16;27.02;;;9.23;;
22837;SDS011;11585;51.450;-0.240;2023-05-23T11:32:48;12.80;;;4.63;;
22837;SDS011;11585;51.450;-0.240;2023-05-23T11:35:15;10.60;;;3.25;;
22837;SDS011;11585;51.450;-0.240;2023-05-23T11:37:41;12.55;;;2.67;;
22837;SDS011;11585;51.450;-0.240;2023-05-23T11:42:54;15.73;;;6.88;;
22837;SDS011;11585;51.450;-0.240;2023-05-23T11:45:21;24.67;;;5.35;;
22837;SDS011;11585;51.450;-0.240;2023-05-23T11:47:47;14.18;;;4.63;;
22837;SDS011;11585;51.450;-0.240;2023-05-23T11:50:14;14.48;;;4.65;;
22837;SDS011;11585;51.450;-0.240;2023-05-23T11:52:40;12.38;;;3.17;;
22837;SDS011;11585;51.450;-0.240;2023-05-23T11:55:06;13.73;;;3.92;;
22837;SDS011;11585;51.450;-0.240;2023-05-23T11:57:33;11.73;;;3.70;;
22837;SDS011;11585;51.450;-0.240;2023-05-23T12:00:06;18.33;;;4.80;;
22837;SDS011;11585;51.450;-0.240;2023-05-23T12:02:37;16.45;;;3.70;;
22837;SDS011;11585;51.450;-0.240;2023-05-23T12:05:13;11.40;;;3.17;;
22837;SDS011;11585;51.450;-0.240;2023-05-23T12:07:43;14.55;;;4.03;;
22837;SDS011;11585;51.450;-0.240;2023-05-23T12:10:17;16.10;;;3.35;;
22837;SDS011;11585;51.450;-0.240;2023-05-23T12:12:46;15.43;;;3.22;;
22837;SDS011;11585;51.450;-0.240;2023-05-23T12:15:15;17.98;;;4.22;;
22837;SDS011;11585;51.450;-0.240;2023-05-23T12:17:44;11.93;;;3.40;;
22837;SDS011;11585;51.450;-0.240;2023-05-23T12:20:10;17.08;;;3.63;;
22837;SDS011;11585;51.450;-0.240;2023-05-23T12:22:36;9.50;;;3.53;;
22837;SDS011;11585;51.450;-0.240;2023-05-23T12:25:01;15.35;;;5.45;;
22837;SDS011;11585;51.450;-0.240;2023-05-23T12:27:29;19.25;;;5.05;;
22837;SDS011;11585;51.450;-0.240;2023-05-23T12:30:07;20.13;;;4.43;;
22837;SDS011;11585;51.450;-0.240;2023-05-23T12:32:33;20.63;;;6.22;;
22837;SDS011;11585;51.450;-0.240;2023-05-23T12:35:02;36.22;;;18.13;;
22837;SDS011;11585;51.450;-0.240;2023-05-23T12:37:28;18.20;;;7.72;;
22837;SDS011;11585;51.450;-0.240;2023-05-23T12:39:54;21.27;;;7.57;;
22837;SDS011;11585;51.450;-0.240;2023-05-23T12:42:20;35.03;;;14.70;;
22837;SDS011;11585;51.450;-0.240;2023-05-23T12:44:49;17.00;;;5.68;;
22837;SDS011;11585;51.450;-0.240;2023-05-23T12:47:15;11.05;;;4.45;;
22837;SDS011;11585;51.450;-0.240;2023-05-23T12:49:42;11.32;;;3.42;;
22837;SDS011;11585;51.450;-0.240;2023-05-23T12:52:10;13.27;;;3.78;;
22837;SDS011;11585;51.450;-0.240;2023-05-23T12:54:36;12.40;;;4.45;;
22837;SDS011;11585;51.450;-0.240;2023-05-23T12:57:01;13.32;;;3.55;;
22837;SDS011;11585;51.450;-0.240;2023-05-23T12:59:27;9.23;;;3.22;;
22837;SDS011;11585;51.450;-0.240;2023-05-23T13:01:53;10.32;;;3.70;;
22837;SDS011;11585;51.450;-0.240;2023-05-23T13:04:19;10.20;;;3.22;;
22837;SDS011;11585;51.450;-0.240;2023-05-23T13:06:45;12.73;;;3.08;;
22837;SDS011;11585;51.450;-0.240;2023-05-23T13:09:10;8.30;;;3.42;;
22837;SDS011;11585;51.450;-0.240;2023-05-23T13:11:36;12.77;;;3.42;;
22837;SDS011;11585;51.450;-0.240;2023-05-23T13:14:02;8.40;;;2.67;;
22837;SDS011;11585;51.450;-0.240;2023-05-23T13:16:28;14.05;;;4.47;;
22837;SDS011;11585;51.450;-0.240;2023-05-23T13:21:38;13.30;;;3.90;;
22837;SDS011;11585;51.450;-0.240;2023-05-23T13:24:04;10.15;;;3.47;;
22837;SDS011;11585;51.450;-0.240;2023-05-23T13:26:30;19.05;;;6.68;;
22837;SDS011;11585;51.450;-0.240;2023-05-23T13:28:55;22.67;;;9.05;;
22837;SDS011;11585;51.450;-0.240;2023-05-23T13:31:21;22.45;;;5.80;;
22837;SDS011;11585;51.450;-0.240;2023-05-23T13:33:46;9.82;;;3.50;;
22837;SDS011;11585;51.450;-0.240;2023-05-23T13:36:12;13.30;;;3.88;;
22837;SDS011;11585;51.450;-0.240;2023-05-23T13:38:39;11.63;;;2.95;;
22837;SDS011;11585;51.450;-0.240;2023-05-23T13:41:06;13.65;;;3.30;;
22837;SDS011;11585;51.450;-0.240;2023-05-23T13:43:32;20.85;;;3.42;;
22837;SDS011;11585;51.450;-0.240;2023-05-23T13:45:58;10.13;;;3.10;;
22837;SDS011;11585;51.450;-0.240;2023-05-23T13:48:25;16.35;;;2.95;;
22837;SDS011;11585;51.450;-0.240;2023-05-23T13:50:51;11.93;;;3.97;;
22837;SDS011;11585;51.450;-0.240;2023-05-23T13:53:17;13.77;;;3.90;;
22837;SDS011;11585;51.450;-0.240;2023-05-23T13:55:42;13.23;;;3.40;;
22837;SDS011;11585;51.450;-0.240;2023-05-23T13:58:11;16.98;;;4.80;;
22837;SDS011;11585;51.450;-0.240;2023-05-23T14:03:26;15.88;;;5.30;;
22837;SDS011;11585;51.450;-0.240;2023-05-23T14:05:52;15.55;;;3.83;;
22837;SDS011;11585;51.450;-0.240;2023-05-23T14:08:18;13.30;;;3.47;;
22837;SDS011;11585;51.450;-0.240;2023-05-23T14:10:44;10.02;;;2.75;;
22837;SDS011;11585;51.450;-0.240;2023-05-23T14:13:09;14.18;;;3.65;;
22837;SDS011;11585;51.450;-0.240;2023-05-23T14:15:36;12.75;;;3.40;;
22837;SDS011;11585;51.450;-0.240;2023-05-23T14:18:02;12.50;;;3.55;;
22837;SDS011;11585;51.450;-0.240;2023-05-23T14:20:28;8.18;;;2.75;;
22837;SDS011;11585;51.450;-0.240;2023-05-23T14:22:54;14.10;;;4.65;;
22837;SDS011;11585;51.450;-0.240;2023-05-23T14:25:19;8.70;;;2.97;;
22837;SDS011;11585;51.450;-0.240;2023-05-23T14:27:46;13.02;;;3.92;;
22837;SDS011;11585;51.450;-0.240;2023-05-23T14:30:11;10.57;;;3.00;;
22837;SDS011;11585;51.450;-0.240;2023-05-23T14:32:37;17.48;;;3.55;;
22837;SDS011;11585;51.450;-0.240;2023-05-23T14:35:08;11.95;;;4.18;;
22837;SDS011;11585;51.450;-0.240;2023-05-23T14:37:35;13.35;;;3.72;;
22837;SDS011;11585;51.450;-0.240;2023-05-23T14:40:01;9.80;;;4.05;;
22837;SDS011;11585;51.450;-0.240;2023-05-23T14:42:28;14.75;;;4.05;;
22837;SDS011;11585;51.450;-0.240;2023-05-23T14:44:53;11.27;;;4.03;;
22837;SDS011;11585;51.450;-0.240;2023-05-23T14:47:19;21.50;;;7.05;;
22837;SDS011;11585;51.450;-0.240;2023-05-23T14:49:45;15.45;;;4.70;;
22837;SDS011;11585;51.450;-0.240;2023-05-23T14:52:11;14.25;;;5.40;;
22837;SDS011;11585;51.450;-0.240;2023-05-23T14:54:37;13.38;;;5.40;;
22837;SDS011;11585;51.450;-0.240;2023-05-23T14:57:07;10.40;;;3.55;;
22837;SDS011;11585;51.450;-0.240;2023-05-23T15:02:02;11.40;;;4.35;;
22837;SDS011;11585;51.450;-0.240;2023-05-23T15:04:29;11.02;;;4.07;;
22837;SDS011;11585;51.450;-0.240;2023-05-23T15:06:55;11.38;;;3.35;;
22837;SDS011;11585;51.450;-0.240;2023-05-23T15:09:21;15.25;;;3.60;;
22837;SDS011;11585;51.450;-0.240;2023-05-23T15:11:46;7.53;;;3.35;;
22837;SDS011;11585;51.450;-0.240;2023-05-23T15:14:13;10.07;;;4.05;;
22837;SDS011;11585;51.450;-0.240;2023-05-23T15:16:40;12.95;;;3.38;;
22837;SDS011;11585;51.450;-0.240;2023-05-23T15:19:08;9.73;;;2.85;;
22837;SDS011;11585;51.450;-0.240;2023-05-23T15:21:34;13.65;;;4.50;;
22837;SDS011;11585;51.450;-0.240;2023-05-23T15:24:01;12.35;;;3.47;;
22837;SDS011;11585;51.450;-0.240;2023-05-23T15:26:27;16.33;;;4.10;;
22837;SDS011;11585;51.450;-0.240;2023-05-23T15:28:53;13.55;;;5.32;;
22837;SDS011;11585;51.450;-0.240;2023-05-23T15:31:19;15.30;;;4.43;;
22837;SDS011;11585;51.450;-0.240;2023-05-23T15:33:45;14.38;;;3.92;;
22837;SDS011;11585;51.450;-0.240;2023-05-23T15:36:14;14.02;;;4.32;;
22837;SDS011;11585;51.450;-0.240;2023-05-23T15:41:09;15.30;;;4.45;;
22837;SDS011;11585;51.450;-0.240;2023-05-23T15:43:35;16.73;;;3.47;;
22837;SDS011;11585;51.450;-0.240;2023-05-23T15:46:00;8.82;;;3.15;;
22837;SDS011;11585;51.450;-0.240;2023-05-23T15:48:26;14.38;;;3.10;;
22837;SDS011;11585;51.450;-0.240;2023-05-23T15:50:52;14.85;;;4.15;;
22837;SDS011;11585;51.450;-0.240;2023-05-23T15:53:18;12.13;;;3.83;;
22837;SDS011;11585;51.450;-0.240;2023-05-23T15:55:44;17.73;;;4.20;;